Orient, Maine
Current Conditions -  °F | °C
As of 9:53 PM on Friday 31 Oct 2014 (Local Time) from KHUL Reporting Station
Overcast Overcast  
Wind Chill: 39°   Ceiling: 6000
Heat Index: 39°   Visibility: 10mi
Dew Point: 34°   Wind: 3mph
Humidity: 82%   Direction: 20°NNE
Pressure: 30.09"   Gusts: NA
Location:  45.82°N, 67.84°W
Report Text: KHUL 010153Z AUTO 02003KT 10SM FEW040 OVC060 04/01 A3009 RMK AO2 SLP196 T00390011
Loading
Personal Weather Stations






























Interactive Weather Map
Tropical Storm Tracking
New forecast layout! Learn more

10-Day Weather Forecast

Advertisements
Track Severe Weather on mobile